Time;durP1;ratioP1;P1;durP2;ratioP2;P2;SDS_P1;SDS_P2;PMS_P1;PMS_P2;Temp;Humidity;BMP_temperature;BMP_pressure;BME280_temperature;BME280_humidity;BME280_pressure;Samples;Min_cycle;Max_cycle;Signal;HPM_P1;HPM_P2
2021/06/08 00:00:22;;;;;;;4.40;3.53;;;;;;;13.13;89.25;95876.91;4922674;29;20040;-73
2021/06/08 00:03:08;;;;;;;9.23;4.00;;;;;;;13.08;89.88;95871.69;4914122;29;20119;-73
2021/06/08 00:05:34;;;;;;;5.60;4.03;;;;;;;13.02;89.73;95872.78;4928482;29;20472;-74
2021/06/08 00:08:01;;;;;;;5.80;4.07;;;;;;;13.01;89.75;95861.41;4922397;29;20644;-70
2021/06/08 00:10:26;;;;;;;6.15;3.75;;;;;;;13.08;89.66;95866.41;4934752;29;20051;-69
2021/06/08 00:12:52;;;;;;;4.40;3.80;;;;;;;13.02;89.91;95863.00;4937602;28;20451;-69
2021/06/08 00:15:18;;;;;;;5.40;4.00;;;;;;;12.95;89.66;95865.16;4917373;29;20078;-69
2021/06/08 00:17:43;;;;;;;9.10;4.22;;;;;;;12.84;90.19;95872.38;4919894;29;20066;-69
2021/06/08 00:20:10;;;;;;;6.18;4.22;;;;;;;12.78;90.45;95876.09;4936135;29;20044;-69
2021/06/08 00:22:35;;;;;;;5.70;3.88;;;;;;;12.79;90.50;95882.97;4920008;29;20202;-69
2021/06/08 00:25:01;;;;;;;4.47;3.97;;;;;;;12.77;90.13;95879.81;4923737;29;20167;-69
2021/06/08 00:27:27;;;;;;;7.75;4.00;;;;;;;12.74;89.99;95883.00;4953651;29;20262;-69
2021/06/08 00:29:52;;;;;;;6.28;4.10;;;;;;;12.75;90.31;95885.38;4923463;28;20059;-69
2021/06/08 00:32:18;;;;;;;7.57;5.35;;;;;;;12.74;90.13;95875.06;4935602;29;20050;-69
2021/06/08 00:34:43;;;;;;;5.20;3.80;;;;;;;12.68;89.92;95878.81;4955542;29;20054;-69
2021/06/08 00:37:09;;;;;;;5.57;3.70;;;;;;;12.64;89.91;95874.09;4955357;29;20054;-69
2021/06/08 00:39:34;;;;;;;5.75;3.80;;;;;;;12.59;90.28;95876.75;4922472;28;20067;-68
2021/06/08 00:42:00;;;;;;;5.88;4.10;;;;;;;12.54;90.66;95874.16;4919029;29;20052;-69
2021/06/08 00:44:25;;;;;;;6.97;4.10;;;;;;;12.49;90.51;95882.09;4918818;29;20059;-69
2021/06/08 00:46:51;;;;;;;4.38;3.80;;;;;;;12.49;91.12;95871.53;4917080;29;20413;-69
2021/06/08 00:49:17;;;;;;;7.28;4.00;;;;;;;12.49;90.42;95876.81;4922390;29;20055;-68
2021/06/08 00:51:43;;;;;;;5.22;4.22;;;;;;;12.47;90.65;95873.66;4944013;29;20039;-69
2021/06/08 00:54:11;;;;;;;5.60;4.38;;;;;;;12.39;91.05;95871.59;4954816;29;20389;-69
2021/06/08 00:56:43;;;;;;;7.10;4.40;;;;;;;12.34;90.87;95875.03;4955339;28;20070;-69
2021/06/08 00:59:23;;;;;;;7.30;3.75;;;;;;;12.33;90.94;95878.72;4929662;28;20052;-69
2021/06/08 01:01:49;;;;;;;5.85;4.00;;;;;;;12.32;90.71;95876.38;4916683;29;20501;-68
2021/06/08 01:04:15;;;;;;;5.57;3.95;;;;;;;12.28;90.34;95866.34;4916743;29;20044;-69
2021/06/08 01:06:40;;;;;;;6.28;4.00;;;;;;;12.24;91.46;95865.31;4916732;29;20417;-69
2021/06/08 01:09:08;;;;;;;4.85;3.80;;;;;;;12.21;90.64;95865.84;4927755;29;20048;-69
2021/06/08 01:11:36;;;;;;;6.30;4.22;;;;;;;12.20;91.25;95859.00;4916871;29;20055;-69
2021/06/08 01:14:01;;;;;;;6.45;4.15;;;;;;;12.19;91.50;95854.78;4944988;29;20502;-69
2021/06/08 01:16:28;;;;;;;6.72;3.83;;;;;;;12.21;90.89;95852.66;4954571;28;20058;-69
2021/06/08 01:18:54;;;;;;;6.03;4.30;;;;;;;12.22;92.08;95851.59;4954581;28;20039;-69
2021/06/08 01:21:19;;;;;;;7.15;4.57;;;;;;;12.28;91.51;95839.97;4931418;29;20047;-68
2021/06/08 01:23:45;;;;;;;4.75;3.95;;;;;;;12.22;90.97;95841.03;4931502;29;20050;-69
2021/06/08 01:26:11;;;;;;;5.38;4.40;;;;;;;12.19;90.82;95836.31;4954525;28;20058;-69
2021/06/08 01:28:38;;;;;;;6.30;5.10;;;;;;;12.14;91.37;95844.25;4954493;28;20070;-69
2021/06/08 01:31:08;;;;;;;4.40;3.78;;;;;;;12.09;90.70;95836.34;4937720;28;20540;-69
2021/06/08 01:33:39;;;;;;;5.10;3.60;;;;;;;12.09;90.52;95841.63;4925656;29;20055;-69
2021/06/08 01:36:06;;;;;;;5.05;3.92;;;;;;;12.00;90.74;95837.97;4949901;28;20050;-69
2021/06/08 01:38:34;;;;;;;5.05;4.13;;;;;;;11.90;91.18;95823.72;4954276;28;20074;-68
2021/06/08 01:40:59;;;;;;;5.03;4.00;;;;;;;11.90;91.59;95839.56;4923457;28;20078;-67
2021/06/08 01:43:25;;;;;;;5.00;4.40;;;;;;;11.87;91.07;95845.38;4933024;29;20051;-69
2021/06/08 01:45:51;;;;;;;6.90;4.40;;;;;;;11.84;91.32;95845.91;4935071;29;20044;-69
2021/06/08 01:48:17;;;;;;;6.57;4.28;;;;;;;11.84;91.90;95847.75;4934836;29;20044;-69
2021/06/08 01:50:48;;;;;;;7.40;4.38;;;;;;;11.82;91.84;95848.00;4932743;29;20063;-69
2021/06/08 01:53:20;;;;;;;8.57;4.65;;;;;;;11.84;92.10;95845.91;4937736;29;20043;-69
2021/06/08 01:55:50;;;;;;;5.10;4.20;;;;;;;11.86;91.67;95854.34;4939857;29;20043;-69
2021/06/08 01:58:37;;;;;;;7.43;4.38;;;;;;;11.92;91.99;95858.56;4938257;28;20051;-69
2021/06/08 02:01:13;;;;;;;5.30;4.20;;;;;;;11.99;92.33;95852.22;4922312;29;20040;-69
2021/06/08 02:03:47;;;;;;;5.40;4.20;;;;;;;12.01;91.53;95852.72;4952077;29;20090;-69
2021/06/08 02:06:15;;;;;;;5.85;3.80;;;;;;;12.09;91.72;95857.44;4919489;28;20056;-68
2021/06/08 02:08:53;;;;;;;6.57;3.80;;;;;;;12.09;91.34;95854.81;4934330;29;20043;-69
2021/06/08 02:11:56;;;;;;;5.90;4.43;;;;;;;12.08;91.74;95855.88;4933374;29;20044;-69
2021/06/08 02:14:30;;;;;;;5.80;4.43;;;;;;;12.07;91.99;95854.31;4911804;29;20090;-69
2021/06/08 02:17:02;;;;;;;6.03;4.60;;;;;;;12.01;91.82;95847.47;4933280;29;20044;-69
2021/06/08 02:19:30;;;;;;;5.15;4.13;;;;;;;12.02;91.83;95856.94;4933260;29;20116;-69
2021/06/08 02:22:01;;;;;;;5.07;4.40;;;;;;;12.00;92.21;95853.81;4944150;29;20517;-68
2021/06/08 02:24:29;;;;;;;5.15;3.90;;;;;;;12.04;92.16;95854.81;4934366;29;20044;-69
2021/06/08 02:27:05;;;;;;;5.28;3.85;;;;;;;12.00;91.89;95853.81;4934355;29;20490;-69
2021/06/08 02:29:31;;;;;;;5.25;4.40;;;;;;;11.98;91.94;95850.63;4922082;29;20596;-69
2021/06/08 02:31:58;;;;;;;5.10;4.13;;;;;;;12.01;92.16;95856.19;4952813;28;20102;-69
2021/06/08 02:34:24;;;;;;;5.80;4.03;;;;;;;12.02;92.20;95862.22;4934136;28;20140;-69
2021/06/08 02:36:52;;;;;;;6.47;4.78;;;;;;;12.01;92.26;95860.66;4925046;29;20541;-69
2021/06/08 02:39:19;;;;;;;6.10;4.53;;;;;;;12.02;92.75;95864.88;4915170;29;20119;-68
2021/06/08 02:41:45;;;;;;;4.57;3.78;;;;;;;11.95;91.38;95862.50;4914796;29;20051;-69
2021/06/08 02:44:13;;;;;;;5.22;4.50;;;;;;;11.98;92.58;95866.47;4931942;29;20110;-69
2021/06/08 02:46:40;;;;;;;4.50;4.00;;;;;;;11.93;92.45;95865.41;4932954;29;20048;-67
2021/06/08 02:49:06;;;;;;;6.82;4.70;;;;;;;11.84;92.50;95867.00;4933973;29;20122;-69
2021/06/08 02:51:32;;;;;;;6.70;4.93;;;;;;;11.78;93.11;95862.81;4920985;29;20050;-69
2021/06/08 02:53:58;;;;;;;5.97;4.55;;;;;;;11.76;93.07;95863.06;4931596;29;20039;-69
2021/06/08 02:56:24;;;;;;;6.82;4.40;;;;;;;11.75;93.05;95864.13;4930965;29;20136;-69
2021/06/08 02:58:52;;;;;;;5.32;4.60;;;;;;;11.76;92.74;95859.63;4945163;28;20489;-69
2021/06/08 03:01:19;;;;;;;5.72;4.85;;;;;;;11.87;93.62;95871.75;4952453;29;20113;-69
2021/06/08 03:03:50;;;;;;;5.13;4.20;;;;;;;11.87;92.92;95871.75;4947699;28;20040;-69
2021/06/08 03:06:21;;;;;;;4.70;4.03;;;;;;;11.82;91.73;95869.09;4931344;29;20047;-69
2021/06/08 03:08:59;;;;;;;5.65;4.30;;;;;;;11.76;93.20;95872.81;4928851;29;20044;-69
2021/06/08 03:11:36;;;;;;;5.78;4.85;;;;;;;11.79;93.78;95880.19;4913033;29;20048;-69
2021/06/08 03:14:04;;;;;;;6.32;5.30;;;;;;;11.85;93.77;95889.69;4917479;29;20475;-69
2021/06/08 03:16:34;;;;;;;4.85;3.88;;;;;;;11.85;92.62;95878.34;4919049;29;20145;-69
2021/06/08 03:19:04;;;;;;;5.32;4.70;;;;;;;11.71;92.27;95878.91;4914495;29;20126;-68
2021/06/08 03:21:34;;;;;;;5.22;4.50;;;;;;;11.68;92.99;95881.28;4914091;29;20076;-68
2021/06/08 03:24:03;;;;;;;5.72;4.88;;;;;;;11.65;93.76;95879.16;4924679;29;20051;-69
2021/06/08 03:26:35;;;;;;;6.38;4.78;;;;;;;11.73;93.95;95886.53;4950821;29;20043;-69
2021/06/08 03:29:05;;;;;;;6.25;4.68;;;;;;;11.74;93.09;95882.84;4952838;28;20417;-69
2021/06/08 03:31:31;;;;;;;5.65;4.78;;;;;;;11.73;92.68;95886.53;4915362;28;20043;-69
2021/06/08 03:33:57;;;;;;;6.90;5.07;;;;;;;11.78;93.54;95889.19;4913704;29;20502;-69
2021/06/08 03:36:26;;;;;;;6.28;5.10;;;;;;;11.80;93.79;95892.31;4926723;29;20059;-69
2021/06/08 03:38:53;;;;;;;5.95;4.90;;;;;;;11.83;93.31;95883.88;4933188;29;20544;-67
2021/06/08 03:41:20;;;;;;;5.63;5.03;;;;;;;11.86;93.15;95885.97;4913919;29;20445;-71
2021/06/08 03:43:46;;;;;;;7.35;5.18;;;;;;;11.81;93.80;95887.84;4913772;29;20048;-74
2021/06/08 03:46:12;;;;;;;10.13;5.75;;;;;;;11.84;94.05;95893.38;4924648;29;20761;-74
2021/06/08 03:48:38;;;;;;;6.57;5.63;;;;;;;11.88;93.88;95891.78;4929117;29;20055;-75
2021/06/08 03:51:04;;;;;;;8.32;5.68;;;;;;;11.92;93.62;95900.75;4951959;28;20039;-74
2021/06/08 03:53:30;;;;;;;9.85;6.15;;;;;;;11.96;93.62;95896.53;4917802;28;20054;-74
2021/06/08 03:55:56;;;;;;;6.03;5.07;;;;;;;11.98;93.18;95898.88;4921372;29;20118;-74
2021/06/08 03:58:22;;;;;;;6.40;5.45;;;;;;;12.03;92.98;95892.84;4931954;29;20075;-75
2021/06/08 04:00:51;;;;;;;6.82;5.40;;;;;;;12.04;93.24;95897.03;4951797;28;20095;-74
2021/06/08 04:03:18;;;;;;;6.82;5.68;;;;;;;12.06;93.10;95900.97;4920113;28;20075;-74
2021/06/08 04:05:46;;;;;;;6.82;5.80;;;;;;;12.02;93.49;95902.56;4916922;29;20047;-75
2021/06/08 04:08:11;;;;;;;8.25;5.38;;;;;;;12.10;93.20;95901.25;4933068;29;20807;-75
2021/06/08 04:10:39;;;;;;;6.68;5.32;;;;;;;12.08;93.39;95906.00;4928324;29;20044;-74
2021/06/08 04:13:05;;;;;;;7.07;5.35;;;;;;;12.15;93.19;95903.84;4931551;28;20048;-74
2021/06/08 04:15:32;;;;;;;7.22;5.45;;;;;;;12.14;93.09;95902.28;4913888;29;20047;-74
2021/06/08 04:18:00;;;;;;;7.63;5.72;;;;;;;12.13;93.48;95904.13;4931771;29;20058;-74
2021/06/08 04:20:26;;;;;;;6.90;5.18;;;;;;;12.18;92.95;95908.59;4927261;29;20405;-75
2021/06/08 04:22:58;;;;;;;8.05;5.43;;;;;;;12.21;93.35;95918.63;4932822;29;20051;-74
2021/06/08 04:25:25;;;;;;;8.75;5.45;;;;;;;12.25;93.29;95917.00;4932872;29;20051;-74
2021/06/08 04:27:51;;;;;;;6.40;5.30;;;;;;;12.23;93.04;95913.88;4928270;29;20055;-75
2021/06/08 04:30:18;;;;;;;6.18;5.53;;;;;;;12.32;92.87;95918.59;4934239;29;20044;-75
2021/06/08 04:32:45;;;;;;;7.30;5.72;;;;;;;12.33;93.06;95917.53;4938727;28;20048;-75
2021/06/08 04:35:13;;;;;;;6.35;5.45;;;;;;;12.37;92.82;95915.91;4913802;29;20044;-72
2021/06/08 04:37:39;;;;;;;7.35;5.07;;;;;;;12.41;92.80;95916.94;4919473;29;20126;-71
2021/06/08 04:40:06;;;;;;;5.90;4.75;;;;;;;12.52;92.32;95918.50;4932223;29;20138;-71
2021/06/08 04:42:32;;;;;;;5.13;4.60;;;;;;;12.56;92.16;95919.53;4926403;29;20078;-71
2021/06/08 04:44:57;;;;;;;5.90;4.68;;;;;;;12.63;91.67;95919.25;4913548;29;20070;-71
2021/06/08 04:47:24;;;;;;;5.72;4.78;;;;;;;12.69;92.22;95920.00;4924847;29;20548;-71
2021/06/08 04:49:50;;;;;;;6.10;5.18;;;;;;;12.76;92.39;95925.78;4929237;29;20046;-71
2021/06/08 04:52:16;;;;;;;6.28;4.70;;;;;;;12.81;92.29;95923.91;4938341;28;20114;-71
2021/06/08 04:54:42;;;;;;;5.55;4.80;;;;;;;12.86;91.95;95917.78;4935442;29;20127;-71
2021/06/08 04:57:11;;;;;;;6.00;5.07;;;;;;;13.03;91.75;95917.44;4919600;29;20490;-71
2021/06/08 04:59:45;;;;;;;7.10;4.63;;;;;;;13.11;91.38;95923.97;4928725;29;20051;-71
2021/06/08 05:02:22;;;;;;;5.40;4.90;;;;;;;13.21;91.25;95923.91;4917130;29;20040;-73
2021/06/08 05:04:48;;;;;;;6.05;4.82;;;;;;;13.28;90.72;95928.88;4920610;29;20370;-72
2021/06/08 05:07:17;;;;;;;7.60;4.60;;;;;;;13.38;90.78;95922.75;4936129;29;20130;-72
2021/06/08 05:09:46;;;;;;;5.65;4.78;;;;;;;13.44;90.50;95921.66;4928959;29;20461;-71
2021/06/08 05:12:15;;;;;;;5.40;4.68;;;;;;;13.58;90.10;95922.59;4935032;29;20521;-72
2021/06/08 05:14:48;;;;;;;6.55;4.90;;;;;;;13.68;89.93;95929.63;4915590;29;20402;-72
2021/06/08 05:17:16;;;;;;;8.45;5.15;;;;;;;13.74;90.10;95920.59;4917139;29;20078;-72
2021/06/08 05:19:43;;;;;;;6.07;5.07;;;;;;;13.83;89.57;95928.69;4930523;29;20048;-72
2021/06/08 05:22:09;;;;;;;8.15;5.50;;;;;;;13.90;89.21;95923.88;4916635;29;20064;-72
2021/06/08 05:24:34;;;;;;;5.78;4.57;;;;;;;14.06;89.17;95931.66;4917147;29;20050;-72
2021/06/08 05:27:02;;;;;;;6.53;4.60;;;;;;;14.15;89.08;95929.97;4915307;29;20048;-72
2021/06/08 05:29:28;;;;;;;5.28;4.40;;;;;;;14.19;89.24;95930.97;4917485;29;20044;-72
2021/06/08 05:31:58;;;;;;;6.43;5.35;;;;;;;14.31;88.34;95936.66;4928464;29;20046;-72
2021/06/08 05:34:25;;;;;;;5.93;5.05;;;;;;;14.36;88.54;95936.59;4954537;28;20472;-72
2021/06/08 05:36:51;;;;;;;7.63;5.15;;;;;;;14.47;88.33;95936.50;4953365;29;20758;-73
2021/06/08 05:39:16;;;;;;;7.68;5.18;;;;;;;14.56;88.01;95934.78;4937625;28;20076;-72
2021/06/08 05:41:42;;;;;;;7.10;6.40;;;;;;;14.63;87.32;95939.78;4915981;29;20434;-72
2021/06/08 05:44:11;;;;;;;7.75;5.60;;;;;;;14.80;86.32;95934.78;4932624;29;20465;-72
2021/06/08 05:46:38;;;;;;;8.75;6.07;;;;;;;14.90;85.88;95944.47;4935113;29;20040;-72
2021/06/08 05:49:05;;;;;;;9.90;7.22;;;;;;;14.86;86.09;95949.53;4932694;29;20470;-72
2021/06/08 05:51:33;;;;;;;7.47;6.43;;;;;;;14.92;86.27;95942.28;4933727;29;20043;-72
2021/06/08 05:53:59;;;;;;;8.13;6.65;;;;;;;15.04;86.18;95940.03;4922144;29;20063;-72
2021/06/08 05:56:30;;;;;;;7.90;7.10;;;;;;;15.17;85.73;95948.31;4925349;29;20059;-72
2021/06/08 05:58:56;;;;;;;9.82;7.32;;;;;;;15.27;85.01;95948.19;4928883;29;20035;-72
2021/06/08 06:01:22;;;;;;;9.30;7.30;;;;;;;15.29;85.19;95948.66;4943401;29;20059;-72
2021/06/08 06:03:51;;;;;;;9.27;7.03;;;;;;;15.27;85.35;95942.88;4915842;29;20040;-72
2021/06/08 06:06:17;;;;;;;10.52;7.68;;;;;;;15.34;84.78;95945.16;4916824;29;20092;-72
2021/06/08 06:08:43;;;;;;;10.50;8.10;;;;;;;15.39;84.46;95945.84;4928028;29;20048;-72
2021/06/08 06:11:10;;;;;;;9.98;8.18;;;;;;;15.49;84.27;95949.44;4917862;29;20043;-71
2021/06/08 06:13:46;;;;;;;10.45;7.65;;;;;;;15.54;83.96;95946.69;4920593;29;20052;-72
2021/06/08 06:16:12;;;;;;;9.07;8.05;;;;;;;15.49;84.04;95939.59;4916031;29;20482;-72
2021/06/08 06:18:39;;;;;;;10.02;7.95;;;;;;;15.66;83.98;95939.06;4939811;29;20099;-72
2021/06/08 06:21:05;;;;;;;10.52;8.65;;;;;;;15.60;84.14;95942.88;4929805;29;20348;-72
2021/06/08 06:23:34;;;;;;;10.88;8.70;;;;;;;15.60;84.02;95934.91;4916664;29;20040;-72
2021/06/08 06:26:00;;;;;;;10.23;8.45;;;;;;;15.63;84.16;95930.88;4915656;29;20095;-72
2021/06/08 06:28:26;;;;;;;10.95;9.73;;;;;;;15.69;84.17;95938.50;4929490;29;20068;-72
2021/06/08 06:30:53;;;;;;;10.60;8.60;;;;;;;15.82;83.97;95930.88;4916680;29;20430;-72
2021/06/08 06:33:21;;;;;;;10.95;8.80;;;;;;;15.88;82.58;95940.31;4915232;29;20075;-72
2021/06/08 06:35:46;;;;;;;9.43;8.13;;;;;;;16.03;82.86;95937.41;4924559;29;20052;-72
2021/06/08 06:38:12;;;;;;;9.77;8.55;;;;;;;16.14;82.09;95942.53;4940355;29;20051;-72
2021/06/08 06:40:39;;;;;;;10.02;8.80;;;;;;;16.07;82.27;95938.38;4949831;28;20055;-72
2021/06/08 06:43:09;;;;;;;11.30;8.70;;;;;;;16.25;82.03;95946.56;4925110;28;20041;-72
2021/06/08 06:45:36;;;;;;;15.55;9.88;;;;;;;16.14;81.63;95942.53;4915096;29;20502;-72
2021/06/08 06:48:03;;;;;;;16.40;10.05;;;;;;;16.25;81.80;95949.22;4920037;29;20059;-72
2021/06/08 06:50:40;;;;;;;12.88;11.27;;;;;;;16.17;82.13;95952.56;4928617;29;20056;-72
2021/06/08 06:53:06;;;;;;;12.57;10.82;;;;;;;16.36;81.51;95955.88;4929229;29;20413;-73
2021/06/08 06:55:32;;;;;;;14.05;10.32;;;;;;;16.45;81.01;95954.13;4933662;29;20044;-72
2021/06/08 06:57:58;;;;;;;23.45;12.18;;;;;;;16.55;81.66;95962.97;4931798;29;20091;-72
2021/06/08 07:00:26;;;;;;;12.60;9.52;;;;;;;16.68;80.33;95951.56;4945826;29;20039;-72
2021/06/08 07:02:54;;;;;;;11.55;9.85;;;;;;;16.70;80.83;95946.72;4922271;28;20477;-72
2021/06/08 07:05:25;;;;;;;12.10;10.80;;;;;;;16.75;79.25;95957.25;4914851;29;20525;-72
2021/06/08 07:07:52;;;;;;;12.88;10.73;;;;;;;16.77;79.16;95949.75;4919409;29;20059;-72
2021/06/08 07:10:25;;;;;;;13.50;11.02;;;;;;;16.65;80.04;95946.03;4929046;29;20044;-73
2021/06/08 07:12:51;;;;;;;16.17;11.88;;;;;;;16.55;80.67;95947.03;4921153;29;20090;-72
2021/06/08 07:15:23;;;;;;;15.38;10.63;;;;;;;16.73;80.30;95959.41;4914570;29;20101;-72
2021/06/08 07:17:49;;;;;;;12.10;10.80;;;;;;;16.72;79.56;95952.53;4914663;29;20122;-72
2021/06/08 07:20:17;;;;;;;13.55;10.98;;;;;;;16.93;78.81;95952.13;4913128;29;20119;-72
2021/06/08 07:22:43;;;;;;;11.60;10.27;;;;;;;16.91;79.01;95954.28;4927748;29;20050;-71
2021/06/08 07:25:10;;;;;;;14.20;10.02;;;;;;;16.86;80.15;95957.03;4952569;28;20043;-72
2021/06/08 07:27:36;;;;;;;12.43;10.10;;;;;;;16.91;79.68;95959.59;4952743;28;20529;-72
2021/06/08 07:30:05;;;;;;;21.45;11.38;;;;;;;16.85;79.74;95955.47;4946231;28;20050;-73
2021/06/08 07:32:41;;;;;;;12.98;11.00;;;;;;;16.93;79.45;95952.13;4924239;29;20494;-73
2021/06/08 07:35:13;;;;;;;15.00;11.50;;;;;;;17.09;78.61;95950.69;4932503;29;20043;-72
2021/06/08 07:37:44;;;;;;;12.50;10.85;;;;;;;17.07;77.85;95952.88;4932704;29;20412;-72
2021/06/08 07:40:25;;;;;;;12.88;11.55;;;;;;;17.03;78.39;95951.91;4931362;29;20054;-72
2021/06/08 07:42:59;;;;;;;15.02;12.02;;;;;;;16.99;78.73;95956.25;4926752;29;20229;-72
2021/06/08 07:45:35;;;;;;;13.18;11.77;;;;;;;16.99;78.78;95950.94;4938077;29;20445;-72
2021/06/08 07:48:03;;;;;;;13.55;11.52;;;;;;;17.23;78.72;95949.91;4951152;29;20043;-72
2021/06/08 07:50:34;;;;;;;13.82;10.23;;;;;;;17.66;77.52;95952.06;4943473;28;20059;-73
2021/06/08 07:53:02;;;;;;;13.20;11.05;;;;;;;17.97;76.05;95952.13;4924002;29;20061;-72
2021/06/08 07:55:28;;;;;;;16.33;11.68;;;;;;;18.04;75.71;95943.69;4930817;29;20486;-71
2021/06/08 07:57:54;;;;;;;12.60;10.63;;;;;;;18.06;76.45;95938.84;4914420;29;20055;-72
2021/06/08 08:00:20;;;;;;;13.45;11.13;;;;;;;18.25;75.21;95948.47;4914033;29;20044;-70
2021/06/08 08:02:46;;;;;;;12.85;11.55;;;;;;;18.08;74.79;95952.63;4919780;29;20078;-71
2021/06/08 08:05:15;;;;;;;14.18;12.68;;;;;;;17.97;74.85;95951.31;4927060;29;20417;-71
2021/06/08 08:07:42;;;;;;;14.23;12.43;;;;;;;17.95;73.97;95953.50;4929553;29;20044;-71
2021/06/08 08:10:09;;;;;;;14.35;11.65;;;;;;;18.16;74.54;95953.78;4920354;29;20044;-71
2021/06/08 08:12:37;;;;;;;20.85;12.18;;;;;;;18.21;74.98;95952.84;4926215;29;20056;-71
2021/06/08 08:15:05;;;;;;;14.05;12.57;;;;;;;18.23;73.83;95950.66;4913402;29;20058;-71
2021/06/08 08:17:32;;;;;;;13.45;12.07;;;;;;;18.29;74.52;95952.09;4935256;29;20413;-70
2021/06/08 08:19:59;;;;;;;14.55;12.98;;;;;;;18.16;72.57;95951.88;4924006;28;20454;-72
2021/06/08 08:22:25;;;;;;;14.45;12.55;;;;;;;18.28;74.46;95955.84;4938054;29;20040;-71
2021/06/08 08:24:51;;;;;;;14.90;12.73;;;;;;;18.25;73.53;95951.16;4938722;28;20046;-70
2021/06/08 08:27:16;;;;;;;13.90;12.50;;;;;;;18.23;72.55;95948.78;4946062;29;20051;-73
2021/06/08 08:29:45;;;;;;;13.35;11.95;;;;;;;18.36;74.03;95952.44;4929508;29;20044;-73
2021/06/08 08:32:11;;;;;;;13.45;12.05;;;;;;;18.80;70.84;95945.31;4934648;29;20070;-74
2021/06/08 08:34:38;;;;;;;15.10;12.27;;;;;;;18.85;70.27;95953.19;4936935;29;20073;-73
2021/06/08 08:37:03;;;;;;;13.75;12.30;;;;;;;18.78;70.30;95952.88;4934985;29;20051;-69
2021/06/08 08:39:29;;;;;;;14.35;11.82;;;;;;;18.97;70.90;95949.16;4918323;29;20048;-70
2021/06/08 08:41:55;;;;;;;14.75;11.68;;;;;;;18.99;69.49;95946.94;4926668;29;20044;-71
2021/06/08 08:44:21;;;;;;;13.05;11.60;;;;;;;18.87;71.10;95945.69;4941521;29;20414;-71
2021/06/08 08:46:47;;;;;;;16.80;11.30;;;;;;;18.86;71.75;95944.13;4946032;28;20063;-72
2021/06/08 08:49:13;;;;;;;14.32;12.13;;;;;;;19.06;69.09;95941.16;4943801;28;20051;-71
2021/06/08 08:51:41;;;;;;;12.98;10.90;;;;;;;19.09;68.55;95946.63;4936598;29;20048;-72
2021/06/08 08:54:12;;;;;;;13.90;12.35;;;;;;;19.07;67.72;95937.41;4923133;29;20425;-71
2021/06/08 08:56:38;;;;;;;12.80;11.50;;;;;;;19.15;68.43;95949.94;4915756;29;20031;-72
2021/06/08 08:59:14;;;;;;;14.20;11.45;;;;;;;19.01;67.84;95944.78;4920746;29;20049;-72
2021/06/08 09:01:42;;;;;;;14.38;11.93;;;;;;;18.97;68.76;95946.50;4922172;28;20141;-71
2021/06/08 09:04:09;;;;;;;12.18;10.90;;;;;;;19.16;71.07;95941.63;4917384;29;20500;-71
2021/06/08 09:06:34;;;;;;;13.85;11.73;;;;;;;18.98;70.85;95946.19;4920334;29;20043;-71
2021/06/08 09:09:01;;;;;;;12.50;11.23;;;;;;;19.28;69.71;95943.69;4918979;29;20126;-71
2021/06/08 09:11:31;;;;;;;12.35;10.60;;;;;;;19.43;68.75;95939.75;4923331;29;20044;-73
2021/06/08 09:13:56;;;;;;;12.90;11.45;;;;;;;19.72;66.41;95940.94;4915891;29;20055;-72
2021/06/08 09:16:22;;;;;;;11.77;10.52;;;;;;;19.69;69.36;95941.59;4918986;29;20410;-71
2021/06/08 09:18:48;;;;;;;12.18;10.88;;;;;;;19.77;68.83;95943.47;4932083;29;20052;-72
2021/06/08 09:21:20;;;;;;;15.38;12.98;;;;;;;19.58;68.47;95951.03;4922557;29;20044;-72
2021/06/08 09:23:47;;;;;;;14.07;12.25;;;;;;;19.55;67.18;95944.44;4917574;29;20119;-71
2021/06/08 09:26:15;;;;;;;15.65;11.82;;;;;;;19.79;66.40;95943.19;4929454;29;20059;-72
2021/06/08 09:28:41;;;;;;;14.70;11.05;;;;;;;20.11;67.29;95949.06;4934043;29;20113;-69
2021/06/08 09:31:22;;;;;;;13.45;10.65;;;;;;;20.36;68.24;95937.47;4921231;29;20055;-70
2021/06/08 09:33:47;;;;;;;13.60;12.15;;;;;;;20.40;66.08;95938.41;4939660;29;20083;-70
2021/06/08 09:36:23;;;;;;;16.38;11.85;;;;;;;20.46;64.25;95941.69;4941569;28;20051;-70
2021/06/08 09:38:55;;;;;;;12.88;11.38;;;;;;;20.85;63.71;95942.41;4926163;29;20058;-69
2021/06/08 09:41:22;;;;;;;12.45;11.10;;;;;;;20.82;64.33;95943.06;4915561;29;20063;-70
2021/06/08 09:43:57;;;;;;;12.43;11.23;;;;;;;21.06;62.93;95941.63;4924030;29;20094;-70
2021/06/08 09:46:27;;;;;;;13.30;11.93;;;;;;;21.13;61.24;95939.22;4926494;28;20060;-73
2021/06/08 09:49:05;;;;;;;15.13;11.05;;;;;;;21.01;61.73;95939.19;4924753;29;20064;-69
2021/06/08 09:51:58;;;;;;;15.20;13.55;;;;;;;20.72;59.46;95935.44;4937026;29;20047;-74
2021/06/08 09:54:32;;;;;;;14.80;12.02;;;;;;;21.19;58.50;95935.25;4930809;29;20126;-75
2021/06/08 09:57:27;;;;;;;14.45;12.32;;;;;;;21.44;60.36;95936.13;4931125;29;20033;-76
2021/06/08 10:00:05;;;;;;;18.75;12.40;;;;;;;21.59;61.14;95931.31;4935256;29;20039;-75
2021/06/08 10:02:45;;;;;;;14.73;13.18;;;;;;;21.37;62.36;95932.44;4933201;29;20048;-75
2021/06/08 10:05:30;;;;;;;13.52;12.13;;;;;;;21.56;60.78;95934.66;4928997;29;20537;-73
2021/06/08 10:07:59;;;;;;;14.05;11.98;;;;;;;21.53;60.21;95932.63;4931502;29;20043;-73
2021/06/08 10:10:25;;;;;;;15.73;11.20;;;;;;;21.78;59.93;95928.16;4932839;29;20378;-73
2021/06/08 10:13:19;;;;;;;20.48;14.13;;;;;;;21.74;59.33;95921.88;4929129;29;20051;-75
2021/06/08 10:15:54;;;;;;;14.27;11.52;;;;;;;22.03;57.76;95928.97;4927605;29;20119;-74
2021/06/08 10:18:20;;;;;;;10.80;9.70;;;;;;;22.76;57.24;95926.66;4931758;29;20050;-73
2021/06/08 10:20:51;;;;;;;12.13;10.40;;;;;;;23.12;56.07;95925.03;4932334;29;20091;-73
2021/06/08 10:23:29;;;;;;;13.73;9.40;;;;;;;23.14;53.53;95925.47;4931221;29;20040;-76
2021/06/08 10:25:57;;;;;;;16.73;12.32;;;;;;;23.32;55.32;95928.66;4931817;29;20102;-76
2021/06/08 10:28:23;;;;;;;17.42;11.95;;;;;;;23.22;56.35;95932.59;4931040;29;20535;-75
2021/06/08 10:30:50;;;;;;;13.73;12.15;;;;;;;23.68;55.19;95933.09;4932082;29;20044;-76
2021/06/08 10:33:16;;;;;;;12.90;11.70;;;;;;;23.47;55.63;95932.50;4932843;29;20102;-76
2021/06/08 10:35:43;;;;;;;17.80;12.70;;;;;;;23.42;55.57;95924.69;4932209;29;20039;-75
2021/06/08 10:38:11;;;;;;;12.82;10.50;;;;;;;23.71;57.23;95926.25;4928724;29;20450;-74
2021/06/08 10:40:38;;;;;;;14.52;11.73;;;;;;;23.28;55.41;95931.25;4932052;29;20518;-73
2021/06/08 10:43:05;;;;;;;11.93;9.23;;;;;;;23.16;56.11;95923.25;4927302;29;20598;-73
2021/06/08 10:45:36;;;;;;;10.02;8.57;;;;;;;23.77;53.78;95914.13;4927088;29;20063;-76
2021/06/08 10:48:10;;;;;;;14.07;9.23;;;;;;;23.74;53.82;95919.41;4928026;29;20470;-76
2021/06/08 10:50:37;;;;;;;10.07;8.73;;;;;;;23.96;52.07;95916.16;4927336;29;20044;-76
2021/06/08 10:53:03;;;;;;;14.55;9.30;;;;;;;23.27;54.22;95908.19;4932588;29;20049;-76
2021/06/08 10:55:38;;;;;;;15.27;9.73;;;;;;;23.52;53.77;95918.84;4930409;29;20066;-75
2021/06/08 10:58:07;;;;;;;10.95;8.63;;;;;;;23.92;51.90;95915.31;4934530;29;20043;-72
2021/06/08 11:00:33;;;;;;;10.05;8.15;;;;;;;23.98;51.17;95913.13;4931142;29;20087;-73
2021/06/08 11:03:02;;;;;;;9.90;8.65;;;;;;;24.25;51.69;95916.88;4914902;29;20048;-73
2021/06/08 11:05:49;;;;;;;11.55;8.90;;;;;;;24.22;50.42;95912.16;4929507;29;20048;-73
2021/06/08 11:08:14;;;;;;;8.10;7.30;;;;;;;24.50;51.91;95912.06;4933453;29;20044;-72
2021/06/08 11:10:45;;;;;;;11.90;8.15;;;;;;;25.45;47.83;95910.22;4930690;29;20066;-71
2021/06/08 11:13:16;;;;;;;12.30;8.52;;;;;;;25.17;47.58;95910.41;4923392;29;20414;-72
2021/06/08 11:15:46;;;;;;;12.55;8.25;;;;;;;24.37;50.02;95908.69;4922494;29;20048;-71
2021/06/08 11:18:17;;;;;;;9.43;8.18;;;;;;;24.68;47.73;95909.81;4931408;29;20048;-71
2021/06/08 11:20:44;;;;;;;10.20;8.05;;;;;;;24.94;47.82;95907.63;4929285;29;20509;-72
2021/06/08 11:23:10;;;;;;;9.55;8.60;;;;;;;24.01;46.61;95907.84;4933859;28;20043;-71
2021/06/08 11:25:43;;;;;;;8.55;7.47;;;;;;;24.13;47.57;95909.66;4919541;29;20035;-72
2021/06/08 11:28:15;;;;;;;12.40;7.75;;;;;;;24.94;46.56;95905.75;4936191;29;20531;-71
2021/06/08 11:30:43;;;;;;;9.60;7.45;;;;;;;25.52;44.02;95904.19;4929246;29;20114;-71
2021/06/08 11:33:32;;;;;;;7.60;6.82;;;;;;;26.27;41.95;95899.34;4939341;29;20180;-72